Time;durP1;ratioP1;P1;durP2;ratioP2;P2;SDS_P1;SDS_P2;PMS_P1;PMS_P2;Temp;Humidity;BMP_temperature;BMP_pressure;BME280_temperature;BME280_humidity;BME280_pressure;Samples;Min_cycle;Max_cycle;Signal;HPM_P1;HPM_P2
2022/08/29 00:02:35;;;;;;;41.87;19.17;;;17.60;99.90;;;;;;4402667;28;658770;-88
2022/08/29 00:05:24;;;;;;;41.25;18.95;;;17.50;99.90;;;;;;4428421;28;658824;-87
2022/08/29 00:08:11;;;;;;;35.57;16.90;;;17.60;99.90;;;;;;4396019;28;658686;-87
2022/08/29 00:10:58;;;;;;;28.93;14.90;;;17.60;99.90;;;;;;4426092;28;659639;-86
2022/08/29 00:13:47;;;;;;;29.60;13.47;;;17.60;99.90;;;;;;4403956;28;659344;-88
2022/08/29 00:16:34;;;;;;;26.60;13.63;;;17.70;99.90;;;;;;4425354;28;659001;-88
2022/08/29 00:19:21;;;;;;;23.47;12.33;;;17.60;99.90;;;;;;4404910;28;658645;-89
2022/08/29 00:22:08;;;;;;;18.07;9.37;;;17.50;99.90;;;;;;4428005;28;660224;-87
2022/08/29 00:24:55;;;;;;;18.73;11.13;;;17.60;99.90;;;;;;4408847;28;657750;-88
2022/08/29 00:27:42;;;;;;;20.80;11.77;;;17.60;99.90;;;;;;4430413;28;659588;-88
2022/08/29 00:30:32;;;;;;;22.33;12.80;;;17.60;99.90;;;;;;4428109;28;659193;-87
2022/08/29 00:33:19;;;;;;;22.43;12.50;;;17.60;99.90;;;;;;4432031;28;659127;-88
2022/08/29 00:36:07;;;;;;;20.37;12.43;;;17.70;99.90;;;;;;4408591;28;659332;-88
2022/08/29 00:38:54;;;;;;;22.70;13.17;;;17.70;99.90;;;;;;4432046;28;658975;-89
2022/08/29 00:41:41;;;;;;;23.43;14.40;;;17.60;99.90;;;;;;4395254;28;659408;-88
2022/08/29 00:44:28;;;;;;;28.17;15.83;;;17.60;99.90;;;;;;4430666;28;659529;-89
2022/08/29 00:47:18;;;;;;;27.43;16.60;;;17.60;99.90;;;;;;4399416;28;659062;-88
2022/08/29 00:50:07;;;;;;;29.67;16.90;;;17.50;99.90;;;;;;4411492;28;658831;-88
2022/08/29 00:52:56;;;;;;;26.17;15.80;;;17.50;99.90;;;;;;4432198;28;658391;-89
2022/08/29 00:55:43;;;;;;;26.90;16.97;;;17.60;99.90;;;;;;4407536;28;658960;-88
2022/08/29 00:58:31;;;;;;;29.17;17.83;;;17.60;99.90;;;;;;4414271;28;658592;-89
2022/08/29 01:01:19;;;;;;;30.67;16.77;;;17.50;99.90;;;;;;4431004;28;659063;-89
2022/08/29 01:04:09;;;;;;;32.67;19.53;;;17.50;99.90;;;;;;4412183;28;658395;-88
2022/08/29 01:06:56;;;;;;;35.80;19.70;;;17.40;99.90;;;;;;4409923;28;658497;-89
2022/08/29 01:09:45;;;;;;;39.30;20.70;;;17.50;99.90;;;;;;4430000;28;658445;-88
2022/08/29 01:12:32;;;;;;;34.57;19.90;;;17.50;99.90;;;;;;4410967;28;658815;-89
2022/08/29 01:15:19;;;;;;;36.17;21.37;;;17.40;99.90;;;;;;4433504;28;658324;-90
2022/08/29 01:18:06;;;;;;;37.40;21.17;;;17.30;99.90;;;;;;4409129;28;658924;-88
2022/08/29 01:21:01;;;;;;;34.03;20.90;;;17.40;99.90;;;;;;4429537;28;659810;-89
2022/08/29 01:23:51;;;;;;;34.73;21.00;;;17.40;99.90;;;;;;4407872;28;658574;-89
2022/08/29 01:26:40;;;;;;;38.37;21.43;;;17.40;99.90;;;;;;4398036;28;659317;-89
2022/08/29 01:29:27;;;;;;;34.17;19.93;;;17.40;99.90;;;;;;4405270;28;659303;-90
2022/08/29 01:32:14;;;;;;;37.47;21.43;;;17.50;99.90;;;;;;4430886;28;658490;-89
2022/08/29 01:35:01;;;;;;;39.00;21.50;;;17.40;99.90;;;;;;4408773;28;659359;-89
2022/08/29 01:37:49;;;;;;;41.53;22.00;;;17.40;99.90;;;;;;4423283;28;658283;-89
2022/08/29 01:40:37;;;;;;;39.87;20.83;;;17.30;99.90;;;;;;4389108;28;658599;-89
2022/08/29 01:43:26;;;;;;;38.30;22.03;;;17.40;99.90;;;;;;4411510;28;659107;-90
2022/08/29 01:46:14;;;;;;;41.10;22.67;;;17.40;99.90;;;;;;4382581;28;659163;-91
2022/08/29 01:49:02;;;;;;;36.53;21.27;;;17.40;99.90;;;;;;4387255;28;658797;-90
2022/08/29 01:51:50;;;;;;;39.80;20.57;;;17.40;99.90;;;;;;4408087;28;658185;-90
2022/08/29 01:54:37;;;;;;;40.97;22.17;;;17.50;99.90;;;;;;4383707;28;659339;-89
2022/08/29 01:57:24;;;;;;;44.63;21.70;;;17.40;99.90;;;;;;4411416;28;658795;-90
2022/08/29 02:00:13;;;;;;;36.80;20.90;;;17.40;99.90;;;;;;4379139;28;658802;-89
2022/08/29 02:03:02;;;;;;;42.70;23.20;;;17.40;99.90;;;;;;4388301;28;658303;-89
2022/08/29 02:05:49;;;;;;;45.50;23.23;;;17.40;99.90;;;;;;4407961;28;659483;-89
2022/08/29 02:08:36;;;;;;;45.67;22.83;;;17.30;99.90;;;;;;4386297;28;658479;-89
2022/08/29 02:11:23;;;;;;;39.17;22.97;;;17.40;99.90;;;;;;4408403;28;659422;-89
2022/08/29 02:14:10;;;;;;;45.70;23.87;;;17.40;99.90;;;;;;4386585;28;659018;-89
2022/08/29 02:16:59;;;;;;;46.07;24.50;;;17.40;99.90;;;;;;4406883;28;659345;-89
2022/08/29 02:19:46;;;;;;;46.73;24.67;;;17.20;99.90;;;;;;4378958;28;659403;-88
2022/08/29 02:22:34;;;;;;;46.17;24.53;;;17.30;99.90;;;;;;4405066;28;659578;-87
2022/08/29 02:28:26;;;;;;;44.23;22.43;;;17.20;99.90;;;;;;4385825;28;659338;-88
2022/08/29 02:31:13;;;;;;;44.40;24.02;;;17.30;99.90;;;;;;4408580;28;659718;-88
2022/08/29 02:34:02;;;;;;;48.03;24.67;;;17.20;99.90;;;;;;4380344;28;658779;-87
2022/08/29 02:36:49;;;;;;;42.47;21.47;;;17.20;99.90;;;;;;4405830;28;658973;-87
2022/08/29 02:39:36;;;;;;;46.97;25.70;;;17.20;99.90;;;;;;4398270;28;659165;-87
2022/08/29 02:42:23;;;;;;;45.00;23.57;;;17.10;99.90;;;;;;4415284;28;659234;-87
2022/08/29 02:45:11;;;;;;;42.80;24.30;;;17.10;99.90;;;;;;4402145;28;658887;-87
2022/08/29 02:47:58;;;;;;;44.23;19.93;;;17.10;99.90;;;;;;4426263;28;659081;-87
2022/08/29 02:50:49;;;;;;;40.93;24.37;;;17.10;99.90;;;;;;4401363;28;659004;-87
2022/08/29 02:53:36;;;;;;;43.93;24.37;;;17.10;99.90;;;;;;4404568;28;658723;-88
2022/08/29 02:56:23;;;;;;;37.87;20.17;;;17.10;99.90;;;;;;4427876;28;658905;-88
2022/08/29 02:59:10;;;;;;;34.10;17.87;;;17.10;99.90;;;;;;4407862;28;658993;-88
2022/08/29 03:01:58;;;;;;;55.17;27.53;;;17.10;99.90;;;;;;4420734;28;659413;-88
2022/08/29 03:04:45;;;;;;;60.90;28.37;;;17.00;99.90;;;;;;4402001;28;659112;-88
2022/08/29 03:07:34;;;;;;;59.33;29.43;;;16.90;99.90;;;;;;4429275;28;658937;-89
2022/08/29 03:10:21;;;;;;;54.03;27.60;;;17.00;99.90;;;;;;4394924;28;658994;-88
2022/08/29 03:13:08;;;;;;;49.43;23.90;;;17.00;99.90;;;;;;4428571;28;659169;-88
2022/08/29 03:15:55;;;;;;;52.53;25.90;;;17.00;99.90;;;;;;4389326;28;658462;-88
2022/08/29 03:18:42;;;;;;;54.50;27.03;;;17.00;99.90;;;;;;4422420;28;659375;-88
2022/08/29 03:21:32;;;;;;;58.30;25.03;;;17.00;99.90;;;;;;4409096;28;658593;-88
2022/08/29 03:24:20;;;;;;;49.93;25.43;;;17.00;99.90;;;;;;4418148;28;658914;-88
2022/08/29 03:27:08;;;;;;;56.00;26.37;;;17.00;99.90;;;;;;4405413;28;659377;-88
2022/08/29 03:29:55;;;;;;;46.03;23.40;;;17.00;99.90;;;;;;4416801;28;658694;-87
2022/08/29 03:32:42;;;;;;;53.80;24.85;;;17.10;99.90;;;;;;4436472;28;658894;-87
2022/08/29 03:35:29;;;;;;;58.77;26.47;;;16.90;99.90;;;;;;4426744;28;658827;-88
2022/08/29 03:38:17;;;;;;;60.60;27.63;;;16.90;99.90;;;;;;4403309;28;658922;-89
2022/08/29 03:41:05;;;;;;;55.63;26.30;;;16.90;99.90;;;;;;4428255;28;658806;-90
2022/08/29 03:43:54;;;;;;;57.67;25.53;;;16.90;99.90;;;;;;4403085;28;659458;-88
2022/08/29 03:46:41;;;;;;;48.60;24.33;;;16.90;99.90;;;;;;4404049;28;658873;-88
2022/08/29 03:49:28;;;;;;;51.73;23.97;;;17.00;99.90;;;;;;4424642;28;659395;-89
2022/08/29 03:52:15;;;;;;;58.87;26.33;;;16.90;99.90;;;;;;4399237;28;658686;-87
2022/08/29 03:55:06;;;;;;;61.17;25.70;;;16.90;99.90;;;;;;4424563;28;659729;-88
2022/08/29 03:57:55;;;;;;;57.90;23.70;;;16.90;99.90;;;;;;4401532;28;659398;-88
2022/08/29 04:00:45;;;;;;;55.83;26.03;;;16.90;99.90;;;;;;4400607;28;659880;-88
2022/08/29 04:03:32;;;;;;;50.97;25.40;;;16.80;99.90;;;;;;4400612;28;659115;-88
2022/08/29 04:06:19;;;;;;;56.63;24.33;;;16.80;99.90;;;;;;4428113;28;659058;-88
2022/08/29 04:09:07;;;;;;;60.27;26.83;;;16.90;99.90;;;;;;4398394;28;658572;-87
2022/08/29 04:11:54;;;;;;;64.60;27.23;;;16.80;99.90;;;;;;4424302;28;658850;-88
2022/08/29 04:14:42;;;;;;;65.68;27.88;;;16.80;99.90;;;;;;4392143;28;658806;-88
2022/08/29 04:17:29;;;;;;;62.97;27.87;;;16.70;99.90;;;;;;4429941;28;659351;-88
2022/08/29 04:20:17;;;;;;;70.67;27.63;;;16.70;99.90;;;;;;4396874;28;658567;-88
2022/08/29 04:23:04;;;;;;;73.07;28.67;;;16.70;99.90;;;;;;4417871;28;658886;-87
2022/08/29 04:25:51;;;;;;;58.90;27.50;;;16.70;99.90;;;;;;4401087;28;658814;-87
2022/08/29 04:28:39;;;;;;;62.90;26.83;;;16.60;99.90;;;;;;4419978;28;659075;-88
2022/08/29 04:31:27;;;;;;;64.93;28.20;;;16.70;99.90;;;;;;4400270;28;659243;-87
2022/08/29 04:34:14;;;;;;;59.90;26.50;;;16.70;99.90;;;;;;4426060;28;659119;-88
2022/08/29 04:37:01;;;;;;;57.73;28.17;;;16.70;99.90;;;;;;4394377;28;659291;-87
2022/08/29 04:39:48;;;;;;;53.87;27.90;;;16.60;99.90;;;;;;4420881;28;659048;-88
2022/08/29 04:42:36;;;;;;;59.80;26.67;;;16.70;99.90;;;;;;4403956;28;658801;-87
2022/08/29 04:45:23;;;;;;;55.70;26.17;;;16.70;99.90;;;;;;4427715;28;658599;-88
2022/08/29 04:48:12;;;;;;;58.47;27.47;;;16.70;99.90;;;;;;4403363;28;658725;-87
2022/08/29 04:51:00;;;;;;;53.07;26.40;;;16.70;99.90;;;;;;4426831;28;658287;-88
2022/08/29 04:53:47;;;;;;;56.97;26.63;;;16.70;99.90;;;;;;4398106;28;659323;-87
2022/08/29 04:56:36;;;;;;;52.90;26.67;;;16.70;99.90;;;;;;4428142;28;658597;-88
2022/08/29 04:59:24;;;;;;;50.17;20.97;;;16.70;99.90;;;;;;4405841;28;659550;-87
2022/08/29 05:02:11;;;;;;;53.40;25.73;;;16.70;99.90;;;;;;4403112;28;658738;-87
2022/08/29 05:04:59;;;;;;;50.03;25.87;;;16.70;99.90;;;;;;4425308;28;658904;-87
2022/08/29 05:07:47;;;;;;;46.77;24.33;;;16.70;99.90;;;;;;4398473;28;658625;-88
2022/08/29 05:10:34;;;;;;;48.87;24.47;;;16.70;99.90;;;;;;4422223;28;658648;-88
2022/08/29 05:13:21;;;;;;;43.17;22.53;;;16.70;99.90;;;;;;4404836;28;658754;-87
2022/08/29 05:16:10;;;;;;;50.37;24.83;;;16.70;99.90;;;;;;4426670;28;659172;-88
2022/08/29 05:18:58;;;;;;;47.13;25.97;;;16.60;99.90;;;;;;4402144;28;660372;-88
2022/08/29 05:21:47;;;;;;;47.73;25.17;;;16.60;99.90;;;;;;4399502;28;658693;-87
2022/08/29 05:24:36;;;;;;;41.77;23.47;;;16.70;99.90;;;;;;4426905;28;659000;-88
2022/08/29 05:27:23;;;;;;;48.70;25.33;;;16.70;99.90;;;;;;4407966;28;659370;-88
2022/08/29 05:30:11;;;;;;;46.10;24.20;;;16.60;99.90;;;;;;4406086;28;658908;-88
2022/08/29 05:32:58;;;;;;;50.30;25.77;;;16.60;99.90;;;;;;4427205;28;659188;-88
2022/08/29 05:35:45;;;;;;;50.37;27.73;;;16.60;99.90;;;;;;4408600;28;658516;-88
2022/08/29 05:38:34;;;;;;;41.27;22.83;;;16.60;99.90;;;;;;4429374;28;658992;-88
2022/08/29 05:41:21;;;;;;;43.20;24.17;;;16.70;99.90;;;;;;4405524;28;658530;-87
2022/08/29 05:44:08;;;;;;;40.07;22.63;;;16.60;99.90;;;;;;4426910;28;659190;-88
2022/08/29 05:46:55;;;;;;;45.47;22.40;;;16.70;99.90;;;;;;4403202;28;659154;-87
2022/08/29 05:49:43;;;;;;;44.87;23.57;;;16.60;99.90;;;;;;4425655;28;659563;-87
2022/08/29 05:52:31;;;;;;;36.70;22.70;;;16.70;99.90;;;;;;4396245;28;659011;-87
2022/08/29 05:55:19;;;;;;;30.60;20.00;;;16.70;99.90;;;;;;4430347;28;658780;-87
2022/08/29 05:58:06;;;;;;;32.60;20.33;;;16.80;99.90;;;;;;4407622;28;658947;-87
2022/08/29 06:00:54;;;;;;;35.20;19.63;;;16.80;99.90;;;;;;4423558;28;659479;-88
2022/08/29 06:03:41;;;;;;;31.70;19.27;;;17.00;99.90;;;;;;4402463;28;658838;-87
2022/08/29 06:06:28;;;;;;;30.00;16.63;;;17.10;99.90;;;;;;4418484;28;658528;-88
2022/08/29 06:09:15;;;;;;;28.03;18.90;;;17.20;99.90;;;;;;4407542;28;658679;-87
2022/08/29 06:12:04;;;;;;;30.60;18.80;;;17.20;99.90;;;;;;4425699;28;659105;-87
2022/08/29 06:14:51;;;;;;;31.47;18.40;;;17.10;99.90;;;;;;4401660;28;658485;-87
2022/08/29 06:17:39;;;;;;;30.17;19.37;;;17.20;99.90;;;;;;4425665;28;659145;-86
2022/08/29 06:20:26;;;;;;;32.27;20.27;;;17.30;99.90;;;;;;4404529;28;659966;-88
2022/08/29 06:23:13;;;;;;;35.33;21.30;;;17.20;99.90;;;;;;4423757;28;658896;-87
2022/08/29 06:26:00;;;;;;;41.80;21.27;;;16.90;99.90;;;;;;4406080;28;658533;-88
2022/08/29 06:28:49;;;;;;;28.57;19.00;;;17.10;99.90;;;;;;4427672;28;658884;-90
2022/08/29 06:31:36;;;;;;;23.47;16.83;;;17.10;99.90;;;;;;4403976;28;658886;-90
2022/08/29 06:34:23;;;;;;;30.87;17.77;;;17.20;99.90;;;;;;4429844;28;659274;-91
2022/08/29 06:37:10;;;;;;;25.13;15.87;;;17.10;99.90;;;;;;4392633;28;658626;-90
2022/08/29 06:39:58;;;;;;;30.53;16.17;;;17.00;99.90;;;;;;4416496;28;660075;-91
2022/08/29 06:42:45;;;;;;;24.77;15.13;;;17.00;99.90;;;;;;4399728;28;658365;-91
2022/08/29 06:45:39;;;;;;;26.13;15.20;;;17.10;99.90;;;;;;4397832;28;658341;-90
2022/08/29 06:48:26;;;;;;;19.27;13.60;;;17.30;99.90;;;;;;4382943;28;659151;-91
2022/08/29 06:51:13;;;;;;;28.23;16.57;;;17.30;99.90;;;;;;4409750;28;659273;-91
2022/08/29 06:54:01;;;;;;;26.00;16.10;;;17.30;99.90;;;;;;4387692;28;658674;-92
2022/08/29 06:56:48;;;;;;;21.63;13.43;;;17.60;99.90;;;;;;4409301;28;658975;-91
2022/08/29 06:59:35;;;;;;;22.42;14.02;;;17.60;99.90;;;;;;4386088;28;658758;-90
2022/08/29 07:02:24;;;;;;;30.97;15.80;;;17.80;99.90;;;;;;4411154;28;659051;-92
2022/08/29 07:05:12;;;;;;;25.70;16.10;;;17.80;99.90;;;;;;4384491;28;658533;-91
2022/08/29 07:07:59;;;;;;;23.47;14.63;;;17.70;99.90;;;;;;4407697;28;658534;-92
2022/08/29 07:10:46;;;;;;;22.33;14.50;;;17.80;99.90;;;;;;4385158;28;658940;-91
2022/08/29 07:13:34;;;;;;;21.13;13.53;;;17.90;99.90;;;;;;4408365;28;659268;-91
2022/08/29 07:16:24;;;;;;;21.73;12.80;;;18.00;99.90;;;;;;4387547;28;658611;-92
2022/08/29 07:19:12;;;;;;;14.40;11.00;;;18.30;99.90;;;;;;4376542;28;658829;-92
2022/08/29 07:22:00;;;;;;;21.03;12.17;;;18.80;99.90;;;;;;4401785;28;658659;-91
2022/08/29 07:24:47;;;;;;;19.97;12.53;;;18.80;99.90;;;;;;4407348;28;659130;-91
2022/08/29 07:27:35;;;;;;;22.43;13.30;;;18.40;99.90;;;;;;4410820;28;658644;-92
2022/08/29 07:30:23;;;;;;;30.07;14.70;;;18.10;99.90;;;;;;4405248;28;659377;-91
2022/08/29 07:33:11;;;;;;;20.23;12.33;;;17.90;99.90;;;;;;4383669;28;658737;-92
2022/08/29 07:36:01;;;;;;;22.00;10.90;;;17.80;99.90;;;;;;4368319;28;659025;-90
2022/08/29 07:38:48;;;;;;;25.90;15.40;;;17.80;99.90;;;;;;4387875;28;658981;-91
2022/08/29 07:41:35;;;;;;;22.17;11.43;;;17.90;99.90;;;;;;4396180;28;658632;-90
2022/08/29 07:44:22;;;;;;;22.20;14.47;;;18.30;99.90;;;;;;4418882;28;658504;-92
2022/08/29 07:47:10;;;;;;;23.30;13.50;;;18.20;99.90;;;;;;4399377;28;659031;-90
2022/08/29 07:49:58;;;;;;;28.33;15.37;;;18.60;99.90;;;;;;4423112;28;658865;-91
2022/08/29 07:52:47;;;;;;;23.40;13.20;;;18.90;99.90;;;;;;4405995;28;658787;-91
2022/08/29 07:55:34;;;;;;;18.17;12.00;;;19.60;99.90;;;;;;4423987;28;658641;-91
2022/08/29 07:58:21;;;;;;;21.07;12.30;;;20.20;99.90;;;;;;4401755;28;658743;-92
2022/08/29 08:01:08;;;;;;;19.58;11.35;;;19.80;99.90;;;;;;4422804;28;658922;-92
2022/08/29 08:03:56;;;;;;;14.80;9.73;;;19.40;99.90;;;;;;4379015;28;658714;-91
2022/08/29 08:06:44;;;;;;;15.80;9.90;;;18.30;99.90;;;;;;4429273;28;657806;-91
2022/08/29 08:09:32;;;;;;;15.17;9.03;;;18.90;99.90;;;;;;4404172;28;657337;-91
2022/08/29 08:12:19;;;;;;;20.47;8.83;;;19.40;99.90;;;;;;4427798;28;657702;-91
2022/08/29 08:15:07;;;;;;;16.80;9.60;;;19.50;99.90;;;;;;4396838;28;657511;-92
2022/08/29 08:17:54;;;;;;;19.03;8.30;;;20.00;99.90;;;;;;4414412;28;657661;-92
2022/08/29 08:20:47;;;;;;;14.33;8.73;;;19.80;99.90;;;;;;4402045;28;658355;-90
2022/08/29 08:23:34;;;;;;;16.20;8.90;;;19.40;99.90;;;;;;4406554;28;657643;-92
2022/08/29 08:26:23;;;;;;;13.57;8.77;;;19.20;99.90;;;;;;4401602;28;657679;-91
2022/08/29 08:29:11;;;;;;;13.97;8.23;;;19.20;99.90;;;;;;4401373;28;657782;-90
2022/08/29 08:31:58;;;;;;;13.53;7.93;;;19.20;99.90;;;;;;4425985;28;659070;-92
2022/08/29 08:34:45;;;;;;;19.03;8.27;;;19.00;99.90;;;;;;4397915;28;657332;-91
2022/08/29 08:37:33;;;;;;;17.50;8.87;;;19.30;99.90;;;;;;4420702;28;658161;-92
2022/08/29 08:40:22;;;;;;;13.87;8.77;;;19.40;99.90;;;;;;4385382;28;657682;-90
2022/08/29 08:43:11;;;;;;;14.70;9.23;;;19.90;99.90;;;;;;4403496;28;657325;-91
2022/08/29 08:45:59;;;;;;;13.40;7.90;;;20.20;99.90;;;;;;4387090;28;658336;-91
2022/08/29 08:48:46;;;;;;;11.33;7.83;;;20.90;99.90;;;;;;4385615;28;657916;-91
2022/08/29 08:51:34;;;;;;;12.30;7.53;;;21.30;99.90;;;;;;4411238;28;657975;-91
2022/08/29 08:54:25;;;;;;;10.03;6.03;;;22.00;99.90;;;;;;4391262;28;657517;-90
2022/08/29 08:57:12;;;;;;;11.63;4.90;;;21.20;99.90;;;;;;4379730;28;657829;-91
2022/08/29 09:00:02;;;;;;;8.00;5.43;;;20.80;99.90;;;;;;4411455;28;657372;-91
2022/08/29 09:02:57;;;;;;;12.87;5.70;;;21.10;99.90;;;;;;4399136;28;656836;-92
2022/08/29 09:05:53;;;;;;;11.00;5.50;;;21.60;99.90;;;;;;4404740;28;657641;-91
2022/08/29 09:08:46;;;;;;;10.10;6.00;;;21.20;99.90;;;;;;4387849;28;658087;-91
2022/08/29 09:11:35;;;;;;;13.73;5.40;;;21.20;99.90;;;;;;4382031;28;657907;-92
2022/08/29 09:14:34;;;;;;;11.73;5.20;;;21.20;99.90;;;;;;4379564;28;658416;-91
2022/08/29 09:17:25;;;;;;;9.93;5.30;;;21.30;99.90;;;;;;4386098;28;657522;-90
2022/08/29 09:20:13;;;;;;;6.60;5.27;;;21.50;99.90;;;;;;4390854;28;656808;-93
2022/08/29 09:23:06;;;;;;;7.33;5.60;;;21.30;99.90;;;;;;4370747;28;656397;-91
2022/08/29 09:25:53;;;;;;;8.50;5.30;;;21.10;99.90;;;;;;4329855;28;657815;-92
2022/08/29 09:28:40;;;;;;;7.03;4.83;;;22.00;99.90;;;;;;4379691;28;656650;-92
2022/08/29 09:31:30;;;;;;;7.83;5.03;;;22.50;99.90;;;;;;4387055;28;657945;-91
2022/08/29 09:34:35;;;;;;;6.20;4.30;;;22.90;99.90;;;;;;4358415;28;657232;-91
2022/08/29 09:37:26;;;;;;;6.93;5.17;;;22.00;99.90;;;;;;4378468;28;657229;-93
2022/08/29 09:40:17;;;;;;;9.43;5.17;;;22.00;99.90;;;;;;4352620;28;657067;-91
2022/08/29 09:43:06;;;;;;;11.17;5.97;;;21.80;99.90;;;;;;4372380;28;656521;-91
2022/08/29 09:46:15;;;;;;;6.80;5.10;;;21.50;99.90;;;;;;4391428;28;657664;-92
2022/08/29 09:49:12;;;;;;;10.50;5.73;;;22.10;99.90;;;;;;4360676;28;656601;-92
2022/08/29 09:52:10;;;;;;;8.27;5.03;;;21.20;99.90;;;;;;4401453;28;657487;-92
2022/08/29 09:54:58;;;;;;;8.03;4.70;;;21.00;99.90;;;;;;4388176;28;656564;-92
2022/08/29 09:57:50;;;;;;;7.27;4.70;;;20.80;99.90;;;;;;4394904;28;656418;-91
2022/08/29 10:00:39;;;;;;;7.27;4.70;;;21.60;99.90;;;;;;4408335;28;656619;-93
2022/08/29 10:03:29;;;;;;;7.63;4.30;;;22.20;99.90;;;;;;4396331;28;657098;-92
2022/08/29 10:06:20;;;;;;;12.27;4.23;;;22.50;99.90;;;;;;4360701;28;657639;-91
2022/08/29 10:09:10;;;;;;;7.03;4.10;;;22.70;99.90;;;;;;4378742;28;658666;-92
2022/08/29 10:12:00;;;;;;;9.20;4.80;;;22.80;99.90;;;;;;4391578;28;656648;-92
2022/08/29 10:14:49;;;;;;;11.53;4.63;;;23.20;99.90;;;;;;4374761;28;656537;-93
2022/08/29 10:18:27;;;;;;;8.70;4.63;;;22.70;99.90;;;;;;4391232;28;657618;-90
2022/08/29 10:21:19;;;;;;;7.00;4.73;;;22.90;99.90;;;;;;4376832;28;656868;-93
2022/08/29 10:24:27;;;;;;;6.30;4.57;;;22.70;99.90;;;;;;4338548;28;656565;-92
2022/08/29 10:27:24;;;;;;;7.67;4.60;;;22.00;99.90;;;;;;4373817;28;656688;-92
2022/08/29 10:30:12;;;;;;;15.67;6.00;;;21.70;99.90;;;;;;4377703;28;656630;-92
2022/08/29 10:33:10;;;;;;;8.03;5.50;;;21.70;99.90;;;;;;4405435;28;657666;-92
2022/08/29 10:35:59;;;;;;;13.93;5.77;;;21.70;99.90;;;;;;4385392;28;657834;-93
2022/08/29 10:38:48;;;;;;;14.77;5.60;;;21.50;99.90;;;;;;4384901;28;659062;-92
2022/08/29 10:41:39;;;;;;;8.07;4.87;;;21.70;99.90;;;;;;4403623;28;658327;-92
2022/08/29 10:44:34;;;;;;;8.60;5.33;;;21.60;99.90;;;;;;4387737;28;656878;-92
2022/08/29 10:47:32;;;;;;;9.23;5.87;;;20.80;99.90;;;;;;4381126;28;657355;-92
2022/08/29 10:50:28;;;;;;;12.70;6.00;;;20.70;99.90;;;;;;4402972;28;656745;-91
2022/08/29 10:53:17;;;;;;;12.27;6.47;;;20.40;99.90;;;;;;4411466;28;657634;-92
2022/08/29 10:56:07;;;;;;;12.77;6.93;;;20.00;99.90;;;;;;4420868;28;658153;-92
2022/08/29 10:59:05;;;;;;;10.10;7.10;;;20.00;99.90;;;;;;4383940;28;658116;-92
2022/08/29 11:01:54;;;;;;;13.00;7.60;;;20.30;99.90;;;;;;4394476;28;657852;-92
2022/08/29 11:04:43;;;;;;;11.73;7.20;;;20.60;99.90;;;;;;4383468;28;657724;-92
2022/08/29 11:07:36;;;;;;;13.80;6.83;;;20.40;99.90;;;;;;4371699;28;657977;-92
2022/08/29 11:10:25;;;;;;;13.60;7.17;;;20.70;99.90;;;;;;4386578;28;657689;-91
2022/08/29 11:13:15;;;;;;;15.50;7.60;;;21.30;99.90;;;;;;4317981;28;657955;-92
2022/08/29 11:16:14;;;;;;;10.90;6.53;;;22.00;99.90;;;;;;4357097;28;657600;-92
2022/08/29 11:19:05;;;;;;;10.17;6.10;;;22.70;99.90;;;;;;4391702;28;657936;-91
2022/08/29 11:21:55;;;;;;;13.53;6.83;;;22.70;99.90;;;;;;4399271;28;658127;-92
2022/08/29 11:24:42;;;;;;;11.73;6.40;;;23.70;99.90;;;;;;4385536;28;658549;-91
2022/08/29 11:27:33;;;;;;;10.23;5.67;;;23.30;99.90;;;;;;4423182;28;657725;-92
2022/08/29 11:30:21;;;;;;;12.83;6.47;;;22.90;99.90;;;;;;4402815;28;657592;-92
2022/08/29 11:33:17;;;;;;;11.90;6.67;;;21.80;99.90;;;;;;4409043;28;658392;-92
2022/08/29 11:36:19;;;;;;;12.03;6.37;;;22.00;99.90;;;;;;4389853;28;657511;-91
2022/08/29 11:39:24;;;;;;;12.47;6.70;;;21.60;99.90;;;;;;4389372;28;658429;-90
2022/08/29 11:42:23;;;;;;;11.20;6.50;;;21.50;99.90;;;;;;4364167;28;657740;-93
2022/08/29 11:45:13;;;;;;;9.50;6.60;;;21.60;99.90;;;;;;4336409;28;657939;-95
2022/08/29 11:48:01;;;;;;;9.97;6.20;;;22.60;99.90;;;;;;4360885;28;656318;-94
2022/08/29 11:50:50;;;;;;;13.10;6.50;;;23.40;99.90;;;;;;4344845;28;656839;-94
2022/08/29 11:53:41;;;;;;;9.77;6.47;;;23.90;99.90;;;;;;4335293;28;658068;-94
2022/08/29 11:56:29;;;;;;;11.40;6.20;;;23.20;99.90;;;;;;4271604;28;656754;-94
2022/08/29 11:59:51;;;;;;;10.80;6.23;;;23.20;99.90;;;;;;4283436;28;658272;-92
2022/08/29 12:02:42;;;;;;;10.73;6.53;;;22.40;99.90;;;;;;4291981;28;658684;-93
2022/08/29 12:06:01;;;;;;;9.03;6.00;;;22.20;99.90;;;;;;4306594;28;658968;-94
2022/08/29 12:09:04;;;;;;;10.50;6.60;;;22.80;99.90;;;;;;4254260;28;657794;-93
2022/08/29 12:12:15;;;;;;;11.53;5.93;;;22.10;99.90;;;;;;4309625;28;657586;-94
2022/08/29 12:15:14;;;;;;;12.30;5.90;;;22.30;99.90;;;;;;4298484;28;658204;-92
2022/08/29 12:18:03;;;;;;;11.60;5.63;;;23.40;99.90;;;;;;4360140;28;658253;-95
2022/08/29 12:20:52;;;;;;;10.43;5.27;;;23.00;99.90;;;;;;4365734;28;658151;-93
2022/08/29 12:23:44;;;;;;;9.83;5.60;;;22.50;99.90;;;;;;4379634;28;657603;-94
2022/08/29 12:26:43;;;;;;;8.57;5.33;;;22.40;99.90;;;;;;4361234;28;657072;-96
2022/08/29 12:29:32;;;;;;;8.70;5.30;;;23.40;99.90;;;;;;4378812;28;656519;-93
2022/08/29 12:36:38;;;;;;;9.03;4.87;;;23.80;99.90;;;;;;4297555;28;656111;-95
2022/08/29 12:39:40;;;;;;;10.07;4.70;;;23.60;99.90;;;;;;4393684;23;657218;-70
2022/08/29 12:42:32;;;;;;;8.53;4.63;;;23.60;99.90;;;;;;4381927;28;658024;-73
2022/08/29 12:45:22;;;;;;;8.90;4.60;;;23.40;99.90;;;;;;4383232;28;657068;-74
2022/08/29 12:48:14;;;;;;;8.57;4.43;;;23.60;99.90;;;;;;4381890;28;656746;-73
2022/08/29 12:51:03;;;;;;;13.03;5.00;;;24.00;99.90;;;;;;4382756;28;656411;-74
2022/08/29 12:53:50;;;;;;;9.07;4.68;;;24.30;99.90;;;;;;4382889;28;657621;-70
2022/08/29 12:56:41;;;;;;;10.35;4.55;;;25.00;96.30;;;;;;4410023;28;657484;-72
2022/08/29 12:59:28;;;;;;;8.88;4.07;;;25.10;97.50;;;;;;4379625;28;659479;-73
2022/08/29 13:02:26;;;;;;;9.25;4.10;;;25.50;95.60;;;;;;4383487;28;657009;-71
2022/08/29 13:05:18;;;;;;;9.88;4.40;;;24.30;97.10;;;;;;4382050;28;657218;-69
2022/08/29 13:08:06;;;;;;;10.83;4.87;;;24.30;98.60;;;;;;4376879;28;656893;-70
2022/08/29 13:10:54;;;;;;;12.63;5.00;;;23.70;99.90;;;;;;4404579;28;658613;-73
2022/08/29 13:13:43;;;;;;;11.10;4.97;;;23.50;98.20;;;;;;4383896;28;659421;-72
2022/08/29 13:16:30;;;;;;;7.13;3.67;;;24.60;98.90;;;;;;4386813;28;659132;-71
2022/08/29 13:19:19;;;;;;;7.68;4.60;;;24.50;95.10;;;;;;4403904;28;657365;-72
2022/08/29 13:22:06;;;;;;;7.55;4.35;;;24.90;95.10;;;;;;4387885;28;656437;-71
2022/08/29 13:25:02;;;;;;;7.13;3.88;;;25.40;92.00;;;;;;4403455;28;656899;-74
2022/08/29 13:27:50;;;;;;;8.63;3.78;;;24.70;92.00;;;;;;4404073;28;656151;-70
2022/08/29 13:30:39;;;;;;;7.78;3.83;;;24.50;92.50;;;;;;4406112;28;657381;-73
2022/08/29 13:33:26;;;;;;;10.65;3.92;;;24.90;94.50;;;;;;4382052;28;657128;-74
2022/08/29 13:36:30;;;;;;;10.65;4.03;;;23.70;92.70;;;;;;4403371;28;657690;-73
2022/08/29 13:39:26;;;;;;;9.82;3.88;;;23.70;96.90;;;;;;4365868;28;658265;-72
2022/08/29 13:42:42;;;;;;;10.45;4.15;;;24.50;93.40;;;;;;4386282;28;657235;-74
2022/08/29 13:45:29;;;;;;;7.82;3.83;;;23.90;95.20;;;;;;4354416;28;658282;-74
2022/08/29 13:48:19;;;;;;;11.43;3.90;;;24.00;93.80;;;;;;4392608;28;656623;-72
2022/08/29 13:51:06;;;;;;;11.60;4.00;;;24.90;91.80;;;;;;4393076;28;657616;-73
2022/08/29 13:53:53;;;;;;;7.03;3.65;;;25.40;93.60;;;;;;4416204;28;658449;-73
2022/08/29 13:56:40;;;;;;;10.27;3.92;;;25.50;91.30;;;;;;4393679;28;656813;-69
2022/08/29 13:59:29;;;;;;;9.30;4.10;;;24.90;92.00;;;;;;4413393;28;658528;-73
2022/08/29 14:02:16;;;;;;;9.23;3.58;;;24.90;92.30;;;;;;4390025;28;656211;-71
2022/08/29 14:05:05;;;;;;;7.85;3.65;;;24.20;92.30;;;;;;4406379;28;657641;-71
2022/08/29 14:07:52;;;;;;;8.13;3.80;;;24.80;93.00;;;;;;4386714;28;657648;-71
2022/08/29 14:10:39;;;;;;;10.00;3.70;;;25.20;93.30;;;;;;4401707;28;656755;-71
2022/08/29 14:13:26;;;;;;;9.65;3.90;;;24.80;91.30;;;;;;4388598;28;657562;-72
2022/08/29 14:16:14;;;;;;;6.88;3.80;;;24.20;92.60;;;;;;4412234;28;657603;-71
2022/08/29 14:19:01;;;;;;;8.43;3.95;;;24.00;93.20;;;;;;4390399;28;657016;-72
2022/08/29 14:21:49;;;;;;;7.20;3.72;;;24.90;93.10;;;;;;4412767;28;657354;-72
2022/08/29 14:24:40;;;;;;;9.95;3.35;;;24.50;91.90;;;;;;4392802;28;656538;-71